| time (UTC) | temp F | wind direction | speed knots | gust knots | rain 1hr in | rain 24hr in | rain mn in | humidity % | barometer mb |
| 20260507210052 | 59 | 184 | 2.6 | 9.6 | 0.00 | 0.00 | 0.00 | 49 | 1010.5 |
| 20260507204542 | 58 | 105 | 4.3 | 10.4 | 0.00 | 0.00 | 0.00 | 50 | 1010.6 |
| 20260507203049 | 59 | 283 | 5.2 | 13.9 | 0.00 | 0.00 | 0.00 | 50 | 1010.8 |
| 20260507201544 | 59 | 205 | 6.1 | 13.0 | 0.00 | 0.00 | 0.00 | 52 | 1010.9 |
| 20260507200039 | 59 | 156 | 3.5 | 10.4 | 0.00 | 0.00 | 0.00 | 51 | 1011.2 |
| 20260507194600 | 59 | 229 | 5.2 | 22.6 | 0.00 | 0.00 | 0.00 | 54 | 1011.5 |
| 20260507193034 | 58 | 107 | 4.3 | 12.2 | 0.00 | 0.00 | 0.00 | 54 | 1012.0 |
| 20260507191532 | 58 | 159 | 1.7 | 13.0 | 0.00 | 0.00 | 0.00 | 54 | 1012.2 |
| 20260507190028 | 58 | 159 | 5.2 | 15.6 | 0.00 | 0.00 | 0.00 | 51 | 1012.4 |
| 20260507184527 | 57 | 332 | 5.2 | 12.2 | 0.00 | 0.00 | 0.00 | 51 | 1012.4 |
| 20260507183033 | 58 | 123 | 3.5 | 10.4 | 0.00 | 0.00 | 0.00 | 47 | 1012.7 |
| 20260507181524 | 58 | 132 | 2.6 | 9.6 | 0.00 | 0.00 | 0.00 | 44 | 1012.8 |
| 20260507180024 | 57 | 105 | 5.2 | 15.6 | 0.00 | 0.00 | 0.00 | 44 | 1012.8 |
| 20260507174528 | 57 | 216 | 2.6 | 12.2 | 0.00 | 0.00 | 0.00 | 41 | 1012.9 |
| 20260507173021 | 58 | 194 | 4.3 | 9.6 | 0.00 | 0.00 | 0.00 | 40 | 1013.3 |
| 20260507171515 | 57 | 79 | 2.6 | 11.3 | 0.00 | 0.00 | 0.00 | 42 | 1013.6 |
| 20260507170015 | 56 | 192 | 2.6 | 8.7 | 0.00 | 0.00 | 0.00 | 43 | 1014.1 |
| 20260507164511 | 56 | 143 | 2.6 | 11.3 | 0.00 | 0.00 | 0.00 | 41 | 1014.2 |
| 20260507163008 | 56 | 164 | 3.5 | 8.7 | 0.00 | 0.00 | 0.00 | 41 | 1014.3 |
| 20260507161505 | 55 | 180 | 1.7 | 7.0 | 0.00 | 0.00 | 0.00 | 45 | 1014.6 |
| 20260507160001 | 55 | 150 | 3.5 | 7.8 | 0.00 | 0.00 | 0.00 | 41 | 1015.0 |
| 20260507154606 | 54 | 106 | 2.6 | 7.8 | 0.00 | 0.00 | 0.00 | 43 | 1015.2 |
| 20260507153056 | 52 | 186 | 1.7 | 7.8 | 0.00 | 0.00 | 0.00 | 43 | 1015.2 |
| 20260507151553 | 52 | 183 | 1.7 | 7.8 | 0.00 | 0.00 | 0.00 | 45 | 1015.5 |
| 20260507150056 | 51 | 188 | 0.9 | 5.2 | 0.00 | 0.00 | 0.00 | 45 | 1015.8 |
| 20260507144546 | 50 | 178 | 1.7 | 5.2 | 0.00 | 0.00 | 0.00 | 46 | 1016.1 |
| 20260507143043 | 50 | 179 | 0.9 | 5.2 | 0.00 | 0.00 | 0.00 | 48 | 1016.3 |
| 20260507141542 | 48 | 215 | 0.9 | 4.3 | 0.00 | 0.00 | 0.00 | 52 | 1016.3 |
| 20260507140038 | 47 | 162 | 0.9 | 4.3 | 0.00 | 0.00 | 0.00 | 55 | 1016.4 |
| 20260507134534 | 46 | 153 | 0.0 | 3.5 | 0.00 | 0.00 | 0.00 | 56 | 1016.3 |
| 20260507133033 | 45 | 148 | 0.0 | 2.6 | 0.00 | 0.00 | 0.00 | 60 | 1016.6 |
| 20260507131525 | 43 | 202 | 0.0 | 3.5 | 0.00 | 0.00 | 0.00 | 63 | 1016.8 |
| 20260507130030 | 42 | 139 | 0.0 | 1.7 | 0.00 | 0.00 | 0.00 | 69 | 1016.8 |
| 20260507124520 | 40 | 229 | 0.0 | 1.7 | 0.00 | 0.00 | 0.00 | 74 | 1016.7 |
| 20260507123011 | 37 | 288 | 0.0 | 0.0 | 0.00 | 0.00 | 0.00 | 82 | 1016.7 |
| 20260507121509 | 35 | 290 | 0.0 | 0.0 | 0.00 | 0.00 | 0.00 | 86 | 1016.5 |
| 20260507120013 | 33 | 291 | 0.0 | 0.0 | 0.00 | 0.00 | 0.00 | 90 | 1016.5 |
| 20260507114507 | 32 | 290 | 0.0 | 0.0 | 0.00 | 0.00 | 0.00 | 94 | 1016.4 |
| 20260507113006 | 30 | 290 | 0.0 | 0.0 | 0.00 | 0.00 | 0.00 | 95 | 1016.3 |
| 20260507111507 | 29 | 292 | 0.0 | 0.0 | 0.00 | 0.00 | 0.00 | 95 | 1016.3 |
| 20260507110005 | 29 | 289 | 0.0 | 0.0 | 0.00 | 0.00 | 0.00 | 94 | 1016.2 |
| 20260507104504 | 29 | 290 | 0.0 | 0.0 | 0.00 | 0.00 | 0.00 | 94 | 1016.3 |
| 20260507103001 | 29 | 289 | 0.0 | 0.0 | 0.00 | 0.00 | 0.00 | 93 | 1016.3 |
| 20260507101501 | 29 | 288 | 0.0 | 0.0 | 0.00 | 0.00 | 0.00 | 93 | 1016.3 |
| 20260507100059 | 29 | 284 | 0.0 | 0.0 | 0.00 | 0.00 | 0.00 | 93 | 1016.2 |
| 20260507094558 | 29 | 287 | 0.0 | 0.0 | 0.00 | 0.00 | 0.00 | 92 | 1016.3 |
| 20260507093058 | 30 | 287 | 0.0 | 0.0 | 0.00 | 0.00 | 0.00 | 91 | 1016.3 |
| 20260507091554 | 31 | 283 | 0.0 | 0.0 | 0.00 | 0.00 | 0.00 | 91 | 1016.4 |
| 20260507090053 | 31 | 286 | 0.0 | 0.0 | 0.00 | 0.00 | 0.00 | 91 | 1016.4 |
| 20260507084552 | 31 | 285 | 0.0 | 0.0 | 0.00 | 0.00 | 0.00 | 90 | 1016.3 |
| 20260507083051 | 30 | 285 | 0.0 | 0.0 | 0.00 | 0.00 | 0.00 | 89 | 1016.3 |
| 20260507081549 | 31 | 285 | 0.0 | 0.0 | 0.00 | 0.00 | 0.00 | 88 | 1016.3 |
| 20260507080046 | 32 | 279 | 0.0 | 0.0 | 0.00 | 0.00 | 0.00 | 87 | 1016.3 |
| 20260507074546 | 33 | 278 | 0.0 | 0.0 | 0.00 | 0.00 | 0.00 | 87 | 1016.3 |
| 20260507073044 | 32 | 281 | 0.0 | 0.0 | 0.00 | 0.00 | 0.00 | 87 | 1016.3 |
| 20260507071601 | 32 | 278 | 0.0 | 0.0 | 0.00 | 0.00 | 0.00 | 87 | 1016.4 |
| 20260507070038 | 33 | 278 | 0.0 | 0.0 | 0.00 | 0.00 | 0.00 | 86 | 1016.6 |
| 20260507064537 | 33 | 270 | 0.0 | 0.0 | 0.00 | 0.00 | 0.00 | 85 | 1016.6 |
| 20260507063043 | 33 | 271 | 0.0 | 0.0 | 0.00 | 0.00 | 0.00 | 85 | 1016.6 |
| 20260507061535 | 33 | 272 | 0.0 | 0.0 | 0.00 | 0.00 | 0.00 | 85 | 1016.7 |
| 20260507060036 | 34 | 272 | 0.0 | 0.0 | 0.00 | 0.00 | 0.00 | 83 | 1016.8 |
| 20260507054530 | 34 | 265 | 0.0 | 0.0 | 0.00 | 0.00 | 0.00 | 81 | 1016.7 |
| 20260507053035 | 35 | 264 | 0.0 | 0.0 | 0.00 | 0.00 | 0.00 | 79 | 1016.6 |
| 20260507051531 | 36 | 263 | 0.0 | 0.0 | 0.00 | 0.00 | 0.00 | 77 | 1016.7 |
| 20260507050027 | 36 | 264 | 0.0 | 0.0 | 0.00 | 0.00 | 0.00 | 75 | 1016.6 |
| 20260507044522 | 36 | 264 | 0.0 | 0.0 | 0.00 | 0.00 | 0.00 | 75 | 1016.6 |
| 20260507043023 | 37 | 264 | 0.0 | 0.0 | 0.00 | 0.00 | 0.00 | 72 | 1016.6 |
| 20260507041520 | 37 | 262 | 0.0 | 0.0 | 0.00 | 0.00 | 0.00 | 70 | 1016.5 |
| 20260507040022 | 38 | 262 | 0.0 | 0.0 | 0.00 | 0.00 | 0.00 | 68 | 1016.6 |
| 20260507034531 | 38 | 262 | 0.0 | 0.0 | 0.00 | 0.00 | 0.00 | 66 | 1016.5 |
| 20260507033032 | 39 | 262 | 0.0 | 0.0 | 0.00 | 0.00 | 0.00 | 64 | 1016.6 |
| 20260507031518 | 40 | 262 | 0.0 | 0.9 | 0.00 | 0.00 | 0.00 | 62 | 1016.6 |
| 20260507030015 | 41 | 264 | 0.0 | 0.9 | 0.00 | 0.00 | 0.00 | 59 | 1016.5 |
| 20260507024515 | 42 | 262 | 0.0 | 0.9 | 0.00 | 0.00 | 0.00 | 58 | 1016.4 |
| 20260507023023 | 43 | 323 | 0.0 | 2.6 | 0.00 | 0.00 | 0.00 | 57 | 1016.3 |
| 20260507021511 | 43 | 342 | 0.0 | 0.9 | 0.00 | 0.00 | 0.00 | 56 | 1016.1 |
| 20260507020017 | 43 | 28 | 0.0 | 0.0 | 0.00 | 0.00 | 0.00 | 54 | 1015.9 |
| 20260507014511 | 45 | 25 | 0.0 | 1.7 | 0.00 | 0.00 | 0.00 | 51 | 1015.7 |
| 20260507013007 | 46 | 112 | 0.0 | 0.9 | 0.00 | 0.00 | 0.00 | 49 | 1015.7 |
| 20260507011507 | 47 | 304 | 0.0 | 3.5 | 0.00 | 0.00 | 0.00 | 47 | 1015.7 |
| 20260507010004 | 48 | 316 | 0.9 | 5.2 | 0.00 | 0.00 | 0.00 | 45 | 1015.5 |
| 20260507004503 | 48 | 317 | 0.0 | 5.2 | 0.00 | 0.00 | 0.00 | 46 | 1015.5 |
| 20260507003003 | 49 | 352 | 0.0 | 6.1 | 0.00 | 0.00 | 0.00 | 44 | 1015.5 |
| 20260507001604 | 50 | 349 | 0.9 | 4.3 | 0.00 | 0.00 | 0.00 | 44 | 1015.4 |
| 20260507000059 | 50 | 56 | 0.9 | 7.0 | 0.00 | 0.00 | 0.00 | 43 | 1015.0 |
| 20260506234557 | 51 | 162 | 0.9 | 6.1 | 0.00 | 0.00 | 0.00 | 43 | 1014.9 |
| 20260506233059 | 52 | 319 | 1.7 | 6.1 | 0.00 | 0.00 | 0.00 | 41 | 1014.8 |
| 20260506231601 | 52 | 150 | 1.7 | 7.8 | 0.00 | 0.00 | 0.00 | 42 | 1014.7 |
| 20260506230055 | 53 | 13 | 0.9 | 7.0 | 0.00 | 0.00 | 0.00 | 42 | 1014.6 |
| 20260506224555 | 53 | 340 | 1.7 | 7.0 | 0.00 | 0.00 | 0.00 | 40 | 1014.4 |
| 20260506223054 | 53 | 338 | 0.9 | 7.0 | 0.00 | 0.00 | 0.00 | 41 | 1014.4 |
| 20260506221553 | 54 | 287 | 1.7 | 7.8 | 0.00 | 0.00 | 0.00 | 40 | 1014.3 |
| 20260506220053 | 55 | 204 | 1.7 | 7.8 | 0.00 | 0.00 | 0.00 | 38 | 1014.2 |
| 20260506214602 | 56 | 135 | 0.9 | 6.1 | 0.00 | 0.00 | 0.00 | 40 | 1014.0 |
| 20260506213051 | 56 | 229 | 1.7 | 8.7 | 0.00 | 0.00 | 0.00 | 39 | 1014.1 |
| 20260506211553 | 57 | 219 | 1.7 | 11.3 | 0.00 | 0.00 | 0.00 | 39 | 1013.9 |